createdAt,value
2019-05-29T00:01:52.145Z,12.90
2019-05-29T00:04:19.864Z,12.90
2019-05-29T00:06:47.177Z,12.90
2019-05-29T00:09:14.484Z,12.80
2019-05-29T00:12:01.314Z,12.90
2019-05-29T00:14:28.519Z,12.90
2019-05-29T00:16:55.894Z,12.80
2019-05-29T00:19:42.651Z,12.80
2019-05-29T00:22:10.293Z,12.30
2019-05-29T00:24:37.602Z,12.70
2019-05-29T00:27:05.369Z,12.70
2019-05-29T00:29:33.525Z,12.60
2019-05-29T00:32:00.757Z,12.80
2019-05-29T00:34:31.313Z,11.80
2019-05-29T00:36:58.934Z,12.50
2019-05-29T00:39:26.052Z,12.50
2019-05-29T00:41:53.486Z,13.00
2019-05-29T00:44:33.542Z,12.50
2019-05-29T00:46:49.930Z,12.40
2019-05-29T00:49:18.080Z,12.40
2019-05-29T00:52:04.956Z,12.40
2019-05-29T00:54:32.294Z,12.20
2019-05-29T00:59:45.483Z,12.30
2019-05-29T01:02:13.730Z,12.30
2019-05-29T01:04:41.201Z,12.20
2019-05-29T01:07:10.148Z,12.30
2019-05-29T01:09:37.561Z,12.30
2019-05-29T01:12:04.980Z,12.10
2019-05-29T01:14:51.845Z,12.20
2019-05-29T01:17:19.811Z,11.70
2019-05-29T01:19:47.213Z,11.60
2019-05-29T01:22:34.060Z,12.10
2019-05-29T01:25:01.437Z,12.00
2019-05-29T01:27:28.836Z,12.00
2019-05-29T01:30:15.640Z,11.20
2019-05-29T01:32:42.772Z,12.30
2019-05-29T01:35:10.092Z,11.90
2019-05-29T01:37:37.929Z,11.80
2019-05-29T01:40:27.942Z,12.10
2019-05-29T01:42:54.261Z,11.50
2019-05-29T01:45:21.566Z,11.70
2019-05-29T01:47:48.889Z,11.80
2019-05-29T01:50:17.570Z,11.80
2019-05-29T01:52:45.508Z,12.00
2019-05-29T01:55:12.889Z,11.70
2019-05-29T01:57:40.057Z,11.70
2019-05-29T02:00:28.343Z,11.70
2019-05-29T02:02:55.960Z,11.50
2019-05-29T02:05:24.156Z,11.80
2019-05-29T02:07:52.413Z,11.60
2019-05-29T02:10:20.224Z,11.60
2019-05-29T02:13:07.119Z,11.60
2019-05-29T02:15:34.213Z,11.10
2019-05-29T02:18:03.954Z,11.60
2019-05-29T02:20:31.683Z,11.60
2019-05-29T02:22:59.104Z,11.60
2019-05-29T02:25:26.433Z,11.50
2019-05-29T02:28:13.207Z,11.50
2019-05-29T02:30:40.509Z,11.10
2019-05-29T02:33:07.920Z,12.30
2019-05-29T02:35:35.132Z,11.50
2019-05-29T02:38:02.993Z,11.40
2019-05-29T02:40:49.777Z,11.50
2019-05-29T02:43:17.135Z,11.10
2019-05-29T02:45:54.228Z,11.60
2019-05-29T02:48:35.019Z,10.50
2019-05-29T02:51:02.294Z,11.10
2019-05-29T02:53:30.846Z,11.60
2019-05-29T02:55:58.968Z,11.60
2019-05-29T02:58:27.786Z,11.70
2019-05-29T03:01:15.114Z,11.40
2019-05-29T03:03:55.958Z,11.30
2019-05-29T03:06:24.126Z,11.10
2019-05-29T03:08:51.394Z,11.50
2019-05-29T03:11:18.679Z,11.40
2019-05-29T03:13:46.072Z,11.70
2019-05-29T03:16:13.668Z,10.90
2019-05-29T03:19:00.464Z,11.40
2019-05-29T03:21:28.333Z,11.10
2019-05-29T03:23:56.554Z,11.90
2019-05-29T03:26:27.687Z,11.30
2019-05-29T03:29:15.395Z,11.50
2019-05-29T03:31:47.655Z,10.50
2019-05-29T03:34:12.197Z,11.30
2019-05-29T03:36:47.181Z,11.20
2019-05-29T03:39:08.696Z,11.30
2019-05-29T03:41:35.884Z,10.70
2019-05-29T03:44:03.489Z,11.30
2019-05-29T03:46:40.066Z,11.20
2019-05-29T03:49:00.016Z,11.20
2019-05-29T03:51:29.379Z,11.20
2019-05-29T03:53:57.320Z,11.10
2019-05-29T03:56:44.170Z,11.10
2019-05-29T04:02:10.271Z,10.90
2019-05-29T04:04:38.462Z,10.40
2019-05-29T04:07:05.826Z,11.00
2019-05-29T04:09:33.404Z,11.00
2019-05-29T04:12:00.665Z,11.50
2019-05-29T04:14:29.665Z,11.00
2019-05-29T04:17:00.070Z,11.10
2019-05-29T04:19:27.787Z,11.60
2019-05-29T04:21:56.039Z,11.40
2019-05-29T04:24:23.726Z,11.10
2019-05-29T04:26:51.466Z,11.50
2019-05-29T04:29:19.371Z,11.10
2019-05-29T04:31:46.542Z,11.10
2019-05-29T04:34:14.026Z,11.20
2019-05-29T04:36:41.333Z,11.30
2019-05-29T04:39:08.835Z,11.20
2019-05-29T04:41:56.039Z,11.90
2019-05-29T04:44:23.497Z,11.10
2019-05-29T04:47:12.192Z,11.40
2019-05-29T04:49:39.939Z,11.00
2019-05-29T04:52:07.520Z,11.50
2019-05-29T04:54:35.394Z,11.50
2019-05-29T04:57:02.719Z,11.50
2019-05-29T04:59:30.866Z,12.00
2019-05-29T05:01:58.736Z,11.60
2019-05-29T05:04:45.520Z,11.70
2019-05-29T05:07:13.142Z,11.80
2019-05-29T05:09:40.908Z,11.80
2019-05-29T05:12:22.078Z,11.50
2019-05-29T05:14:49.966Z,11.70
2019-05-29T05:17:26.272Z,10.60
2019-05-29T05:20:06.712Z,11.90
2019-05-29T05:22:34.339Z,11.70
2019-05-29T05:25:01.863Z,12.00
2019-05-29T05:27:48.910Z,12.10
2019-05-29T05:30:36.594Z,11.30
2019-05-29T05:33:04.687Z,11.60
2019-05-29T05:35:32.616Z,12.20
2019-05-29T05:38:00.074Z,12.50
2019-05-29T05:40:27.628Z,12.20
2019-05-29T05:43:23.705Z,11.70
2019-05-29T05:48:29.473Z,12.00
2019-05-29T05:50:57.149Z,12.40
2019-05-29T05:53:24.895Z,12.40
2019-05-29T05:56:12.267Z,12.50
2019-05-29T05:58:40.074Z,12.20
2019-05-29T06:01:16.753Z,12.50
2019-05-29T06:03:44.441Z,12.10
2019-05-29T06:06:15.818Z,12.60
2019-05-29T06:08:43.380Z,12.30
2019-05-29T06:11:10.931Z,12.70
2019-05-29T06:13:38.428Z,12.70
2019-05-29T06:16:06.004Z,12.80
2019-05-29T06:18:34.467Z,12.80
2019-05-29T06:21:21.322Z,12.80
2019-05-29T06:23:49.142Z,12.80
2019-05-29T06:26:16.056Z,13.00
2019-05-29T06:28:43.433Z,12.90
2019-05-29T06:31:11.198Z,13.00
2019-05-29T06:33:39.474Z,13.00
2019-05-29T06:36:06.625Z,13.00
2019-05-29T06:38:33.900Z,13.10
2019-05-29T06:41:01.661Z,13.10
2019-05-29T06:43:29.128Z,13.20
2019-05-29T06:45:57.193Z,13.20
2019-05-29T06:48:41.617Z,13.20
2019-05-29T06:50:57.462Z,13.20
2019-05-29T06:53:24.042Z,14.00
2019-05-29T06:55:54.621Z,13.30
2019-05-29T06:58:42.253Z,14.10
2019-05-29T07:01:09.655Z,13.10
2019-05-29T07:03:37.609Z,13.50
2019-05-29T07:06:05.430Z,13.50
2019-05-29T07:08:38.669Z,13.60
2019-05-29T07:11:01.579Z,13.60
2019-05-29T07:13:29.430Z,13.60
2019-05-29T07:15:57.394Z,14.30
2019-05-29T07:18:24.745Z,13.70
2019-05-29T07:21:11.846Z,13.70
2019-05-29T07:23:41.109Z,13.00
2019-05-29T07:26:08.302Z,13.80
2019-05-29T07:28:37.209Z,13.80
2019-05-29T07:31:04.879Z,13.90
2019-05-29T07:33:32.308Z,13.90
2019-05-29T07:35:59.336Z,14.00
2019-05-29T07:38:27.791Z,14.50
2019-05-29T07:40:55.516Z,14.10
2019-05-29T07:43:23.038Z,14.10
2019-05-29T07:45:50.480Z,14.10
2019-05-29T07:48:38.379Z,14.20
2019-05-29T07:51:25.253Z,14.00
2019-05-29T07:53:52.634Z,14.00
2019-05-29T07:56:22.951Z,14.30
2019-05-29T07:59:01.622Z,14.30
2019-05-29T08:01:38.663Z,14.20
2019-05-29T08:04:06.021Z,14.40
2019-05-29T08:06:33.543Z,14.50
2019-05-29T08:09:01.132Z,14.50
2019-05-29T08:11:28.278Z,14.50
2019-05-29T08:13:55.700Z,14.60
2019-05-29T08:16:22.828Z,14.60
2019-05-29T08:18:52.948Z,14.70
2019-05-29T08:21:19.364Z,14.70
2019-05-29T08:24:06.012Z,14.80
2019-05-29T08:26:34.997Z,14.40
2019-05-29T08:29:21.750Z,14.80
2019-05-29T08:32:08.642Z,14.20
2019-05-29T08:34:36.315Z,14.90
2019-05-29T08:37:06.999Z,14.90
2019-05-29T08:39:36.611Z,15.00
2019-05-29T08:42:21.488Z,15.10
2019-05-29T08:44:30.648Z,15.10
2019-05-29T08:47:09.586Z,15.20
2019-05-29T08:49:26.789Z,15.10
2019-05-29T08:52:10.485Z,15.20
2019-05-29T08:54:24.349Z,15.30
2019-05-29T08:56:52.535Z,15.30
2019-05-29T08:59:20.383Z,15.30
2019-05-29T09:02:07.576Z,15.60
2019-05-29T09:04:35.004Z,15.30
2019-05-29T09:07:22.024Z,15.30
2019-05-29T09:09:49.360Z,14.90
2019-05-29T09:12:16.486Z,14.30
2019-05-29T09:14:43.894Z,15.40
2019-05-29T09:17:11.982Z,15.30
2019-05-29T09:19:39.441Z,15.50
2019-05-29T09:22:06.841Z,15.50
2019-05-29T09:24:34.118Z,15.50
2019-05-29T09:27:02.074Z,15.60
2019-05-29T09:29:29.217Z,15.70
2019-05-29T09:31:56.770Z,15.80
2019-05-29T09:34:24.476Z,15.80
2019-05-29T09:36:55.485Z,15.90
2019-05-29T09:39:21.270Z,16.00
2019-05-29T09:41:49.192Z,16.00
2019-05-29T09:44:31.276Z,16.10
2019-05-29T09:46:46.181Z,15.90
2019-05-29T09:49:14.017Z,16.20
2019-05-29T09:51:41.553Z,16.30
2019-05-29T09:54:08.927Z,16.30
2019-05-29T09:56:36.371Z,16.40
2019-05-29T09:59:04.003Z,16.40
2019-05-29T10:01:31.481Z,16.70
2019-05-29T10:04:00.107Z,16.70
2019-05-29T10:06:28.143Z,16.70
2019-05-29T10:08:56.188Z,16.80
2019-05-29T10:11:24.514Z,16.90
2019-05-29T10:13:52.247Z,17.20
2019-05-29T10:16:19.610Z,17.10
2019-05-29T10:18:52.911Z,16.10
2019-05-29T10:21:41.343Z,17.30
2019-05-29T10:24:09.676Z,16.90
2019-05-29T10:26:57.489Z,17.40
2019-05-29T10:29:25.592Z,16.90
2019-05-29T10:31:53.598Z,17.50
2019-05-29T10:34:21.006Z,17.50
2019-05-29T10:37:07.664Z,17.60
2019-05-29T10:39:34.807Z,18.10
2019-05-29T10:42:01.833Z,18.00
2019-05-29T10:44:29.153Z,17.50
2019-05-29T10:46:59.983Z,18.30
2019-05-29T10:49:47.630Z,18.50
2019-05-29T10:52:17.395Z,18.10
2019-05-29T10:54:44.702Z,18.70
2019-05-29T10:57:12.202Z,18.90
2019-05-29T10:59:40.219Z,18.80
2019-05-29T11:02:07.561Z,19.00
2019-05-29T11:04:36.151Z,19.10
2019-05-29T11:07:23.287Z,18.10
2019-05-29T11:10:04.195Z,18.90
2019-05-29T11:12:39.443Z,19.10
2019-05-29T11:15:20.734Z,19.20
2019-05-29T11:17:36.837Z,19.60
2019-05-29T11:20:04.830Z,19.70
2019-05-29T11:22:38.567Z,19.80
2019-05-29T11:25:21.430Z,19.80
2019-05-29T11:27:46.582Z,19.70
2019-05-29T11:30:13.963Z,19.40
2019-05-29T11:33:01.507Z,19.40
2019-05-29T11:35:29.275Z,19.30
2019-05-29T11:37:58.715Z,19.60
2019-05-29T11:40:26.193Z,19.60
2019-05-29T11:42:54.685Z,19.60
2019-05-29T11:45:24.014Z,19.60
2019-05-29T11:47:51.646Z,19.70
2019-05-29T11:50:21.790Z,19.90
2019-05-29T11:53:08.443Z,20.10
2019-05-29T11:55:55.837Z,20.20
2019-05-29T11:58:31.269Z,20.20
2019-05-29T12:00:53.670Z,20.60
2019-05-29T12:04:08.271Z,20.70
2019-05-29T12:06:35.175Z,20.40
2019-05-29T12:09:05.726Z,21.10
2019-05-29T12:11:33.598Z,21.60
2019-05-29T12:14:02.566Z,21.00
2019-05-29T12:16:29.854Z,21.00
2019-05-29T12:18:57.827Z,20.90
2019-05-29T12:21:31.467Z,20.90
2019-05-29T12:24:03.185Z,21.20
2019-05-29T12:26:30.542Z,21.20
2019-05-29T12:29:04.520Z,21.10
2019-05-29T12:31:27.475Z,21.30
2019-05-29T12:33:55.305Z,21.40
2019-05-29T12:36:22.911Z,21.50
2019-05-29T12:38:50.349Z,21.20
2019-05-29T12:41:17.545Z,21.90
2019-05-29T12:43:45.456Z,22.00
2019-05-29T12:46:13.142Z,22.10
2019-05-29T12:49:01.586Z,21.90
2019-05-29T12:51:29.080Z,21.60
2019-05-29T12:53:56.334Z,21.90
2019-05-29T12:56:23.369Z,22.00
2019-05-29T12:58:50.690Z,21.90
2019-05-29T13:01:18.991Z,22.00
2019-05-29T13:03:46.719Z,21.40
2019-05-29T13:06:14.249Z,22.40
2019-05-29T13:08:41.239Z,22.10
2019-05-29T13:11:08.444Z,22.40
2019-05-29T13:13:56.207Z,22.40
2019-05-29T13:16:23.584Z,22.60
2019-05-29T13:19:10.423Z,22.50
2019-05-29T13:21:37.537Z,22.40
2019-05-29T13:24:10.755Z,22.40
2019-05-29T13:26:34.156Z,22.50
2019-05-29T13:29:21.013Z,22.60
2019-05-29T13:31:48.137Z,22.80
2019-05-29T13:34:18.516Z,22.90
2019-05-29T13:36:45.970Z,23.00
2019-05-29T13:39:13.374Z,23.10
2019-05-29T13:42:08.912Z,23.10
2019-05-29T13:44:33.164Z,23.10
2019-05-29T13:47:06.221Z,23.00
2019-05-29T13:49:33.828Z,23.10
2019-05-29T13:52:20.701Z,23.10
2019-05-29T13:55:03.467Z,23.00
2019-05-29T13:57:30.869Z,23.10
2019-05-29T14:00:32.207Z,23.40
2019-05-29T14:03:00.261Z,23.20
2019-05-29T14:05:27.473Z,23.10
2019-05-29T14:07:55.142Z,23.30
2019-05-29T14:10:22.681Z,23.30
2019-05-29T14:12:52.722Z,23.10
2019-05-29T14:15:20.182Z,23.00
2019-05-29T14:18:09.189Z,22.90
2019-05-29T14:20:56.083Z,22.90
2019-05-29T14:23:23.280Z,22.80
2019-05-29T14:26:10.090Z,22.80
2019-05-29T14:28:51.051Z,22.90
2019-05-29T14:31:18.895Z,22.70
2019-05-29T14:33:46.201Z,22.80
2019-05-29T14:36:33.426Z,22.80
2019-05-29T14:39:20.290Z,22.70
2019-05-29T14:41:49.762Z,22.90
2019-05-29T14:44:17.260Z,22.70
2019-05-29T14:46:44.588Z,22.60
2019-05-29T14:49:13.415Z,22.50
2019-05-29T14:52:00.321Z,22.10
2019-05-29T14:54:41.184Z,22.00
2019-05-29T14:56:57.584Z,22.10
2019-05-29T14:59:25.031Z,22.20
2019-05-29T15:01:52.397Z,22.10
2019-05-29T15:04:20.136Z,22.10
2019-05-29T15:06:47.832Z,22.50
2019-05-29T15:09:15.188Z,22.20
2019-05-29T15:11:42.565Z,22.30
2019-05-29T15:14:10.133Z,22.20
2019-05-29T15:16:38.133Z,22.00
2019-05-29T15:19:06.888Z,22.20
2019-05-29T15:21:34.319Z,21.80
2019-05-29T15:24:01.744Z,21.90
2019-05-29T15:26:29.318Z,22.20
2019-05-29T15:28:57.225Z,22.20
2019-05-29T15:31:44.289Z,22.20
2019-05-29T15:34:12.387Z,22.00
2019-05-29T15:36:40.381Z,22.10
2019-05-29T15:39:08.539Z,22.10
2019-05-29T15:41:36.778Z,22.10
2019-05-29T15:44:06.794Z,22.20
2019-05-29T15:46:34.812Z,22.60
2019-05-29T15:49:02.595Z,22.20
2019-05-29T15:51:50.051Z,22.10
2019-05-29T15:54:17.992Z,22.00
2019-05-29T15:57:05.198Z,22.00
2019-05-29T15:59:33.004Z,21.80
2019-05-29T16:02:03.849Z,22.00
2019-05-29T16:04:31.439Z,20.70
2019-05-29T16:06:59.420Z,21.70
2019-05-29T16:09:27.492Z,20.80
2019-05-29T16:11:55.020Z,21.70
2019-05-29T16:14:22.819Z,21.60
2019-05-29T16:16:50.612Z,21.60
2019-05-29T16:19:18.358Z,21.60
2019-05-29T16:21:46.041Z,22.10
2019-05-29T16:24:14.641Z,21.60
2019-05-29T16:26:45.619Z,21.40
2019-05-29T16:29:15.927Z,20.80
2019-05-29T16:31:53.071Z,21.30
2019-05-29T16:34:21.990Z,21.50
2019-05-29T16:36:52.286Z,21.50
2019-05-29T16:39:21.031Z,21.40
2019-05-29T16:41:49.034Z,21.40
2019-05-29T16:44:27.543Z,21.30
2019-05-29T16:46:52.191Z,21.20
2019-05-29T16:49:21.259Z,21.20
2019-05-29T16:51:50.531Z,21.20
2019-05-29T16:54:23.247Z,21.20
2019-05-29T16:56:50.795Z,21.20
2019-05-29T16:59:19.232Z,21.10
2019-05-29T17:01:47.562Z,21.00
2019-05-29T17:04:15.983Z,21.00
2019-05-29T17:06:47.559Z,21.00
2019-05-29T17:09:16.333Z,21.00
2019-05-29T17:11:44.038Z,20.80
2019-05-29T17:14:31.282Z,20.80
2019-05-29T17:16:58.968Z,20.40
2019-05-29T17:19:26.410Z,20.90
2019-05-29T17:21:53.953Z,20.90
2019-05-29T17:24:21.303Z,20.90
2019-05-29T17:26:49.032Z,20.80
2019-05-29T17:29:36.090Z,20.90
2019-05-29T17:32:03.946Z,20.50
2019-05-29T17:34:34.071Z,20.80
2019-05-29T17:37:02.022Z,20.60
2019-05-29T17:39:29.874Z,20.50
2019-05-29T17:42:18.118Z,19.80
2019-05-29T17:44:45.597Z,20.40
2019-05-29T17:47:13.036Z,19.70
2019-05-29T17:49:59.679Z,20.00
2019-05-29T17:55:26.982Z,20.20
2019-05-29T17:57:54.370Z,19.10
2019-05-29T18:00:24.669Z,19.10
2019-05-29T18:02:52.870Z,19.80
2019-05-29T18:05:40.916Z,19.80
2019-05-29T18:08:08.126Z,19.70
2019-05-29T18:10:36.076Z,19.70
2019-05-29T18:13:03.483Z,19.60
2019-05-29T18:15:31.352Z,19.60
2019-05-29T18:17:59.333Z,18.90
2019-05-29T18:20:27.847Z,19.40
2019-05-29T18:22:55.317Z,19.40
2019-05-29T18:25:24.023Z,18.80
2019-05-29T18:27:51.369Z,19.40
2019-05-29T18:30:20.167Z,18.80
2019-05-29T18:32:48.211Z,19.20
2019-05-29T18:35:19.333Z,19.10
2019-05-29T18:38:06.267Z,19.10
2019-05-29T18:43:20.432Z,18.90
2019-05-29T18:45:49.551Z,19.40
2019-05-29T18:48:17.091Z,18.90
2019-05-29T18:50:44.507Z,18.90
2019-05-29T18:53:15.501Z,18.90
2019-05-29T18:55:48.369Z,18.70
2019-05-29T18:58:15.697Z,18.70
2019-05-29T19:00:53.539Z,18.70
2019-05-29T19:03:25.392Z,18.70
2019-05-29T19:05:54.514Z,18.70
2019-05-29T19:08:25.786Z,18.60
2019-05-29T19:10:55.151Z,18.50
2019-05-29T19:13:23.843Z,18.50
2019-05-29T19:15:50.980Z,18.60
2019-05-29T19:18:18.391Z,18.50
2019-05-29T19:20:46.032Z,18.50
2019-05-29T19:23:13.298Z,18.50
2019-05-29T19:25:43.252Z,18.40
2019-05-29T19:28:10.695Z,18.50
2019-05-29T19:30:38.123Z,18.30
2019-05-29T19:33:25.178Z,18.30
2019-05-29T19:35:52.895Z,18.10
2019-05-29T19:38:19.987Z,18.20
2019-05-29T19:41:06.853Z,18.20
2019-05-29T19:46:22.664Z,17.80
2019-05-29T19:48:50.009Z,18.00
2019-05-29T19:51:17.403Z,18.00
2019-05-29T19:53:44.882Z,18.00
2019-05-29T19:56:14.127Z,17.80
2019-05-29T19:58:41.546Z,18.00
2019-05-29T20:01:08.885Z,17.90
2019-05-29T20:03:36.740Z,17.90
2019-05-29T20:06:05.314Z,17.90
2019-05-29T20:08:36.286Z,18.00
2019-05-29T20:11:02.345Z,17.80
2019-05-29T20:13:29.812Z,18.10
2019-05-29T20:15:57.200Z,17.80
2019-05-29T20:18:25.061Z,17.90
2019-05-29T20:20:52.487Z,17.80
2019-05-29T20:23:20.437Z,17.80
2019-05-29T20:25:48.077Z,17.70
2019-05-29T20:28:36.122Z,17.70
2019-05-29T20:31:04.029Z,17.40
2019-05-29T20:33:32.395Z,17.70
2019-05-29T20:36:00.591Z,17.70
2019-05-29T20:38:28.276Z,17.70
2019-05-29T20:40:59.101Z,17.60
2019-05-29T20:43:26.863Z,17.60
2019-05-29T20:45:54.876Z,17.60
2019-05-29T20:48:22.239Z,17.60
2019-05-29T20:51:09.475Z,17.50
2019-05-29T20:53:37.503Z,17.60
2019-05-29T20:56:04.815Z,17.50
2019-05-29T20:58:32.237Z,17.50
2019-05-29T21:01:03.074Z,17.50
2019-05-29T21:03:29.156Z,17.50
2019-05-29T21:05:56.526Z,17.50
2019-05-29T21:08:24.237Z,17.60
2019-05-29T21:11:10.839Z,17.60
2019-05-29T21:13:43.589Z,17.70
2019-05-29T21:16:30.831Z,17.60
2019-05-29T21:18:58.664Z,17.40
2019-05-29T21:21:26.077Z,17.40
2019-05-29T21:23:53.790Z,17.40
2019-05-29T21:26:21.300Z,17.40
2019-05-29T21:29:01.900Z,17.40
2019-05-29T21:31:29.182Z,17.50
2019-05-29T21:34:16.207Z,17.40
2019-05-29T21:36:57.124Z,16.80
2019-05-29T21:39:24.352Z,17.50
2019-05-29T21:41:52.463Z,17.40
2019-05-29T21:44:20.073Z,16.80
2019-05-29T21:47:07.279Z,17.30
2019-05-29T21:49:35.014Z,17.00
2019-05-29T21:52:02.520Z,17.30
2019-05-29T21:54:49.715Z,16.40
2019-05-29T21:57:16.922Z,17.40
2019-05-29T21:59:44.211Z,17.30
2019-05-29T22:02:12.026Z,17.30
2019-05-29T22:04:40.339Z,17.40
2019-05-29T22:07:08.317Z,17.90
2019-05-29T22:09:35.907Z,17.30
2019-05-29T22:12:03.569Z,17.30
2019-05-29T22:14:30.946Z,17.30
2019-05-29T22:17:07.364Z,17.20
2019-05-29T22:19:40.304Z,16.90
2019-05-29T22:22:07.628Z,17.10
2019-05-29T22:24:35.020Z,17.10
2019-05-29T22:27:02.894Z,17.90
2019-05-29T22:29:30.722Z,17.10
2019-05-29T22:31:58.101Z,17.10
2019-05-29T22:34:25.515Z,17.00
2019-05-29T22:36:53.444Z,17.00
2019-05-29T22:39:20.663Z,18.20
2019-05-29T22:41:48.490Z,17.10
2019-05-29T22:44:16.285Z,17.00
2019-05-29T22:47:03.611Z,16.90
2019-05-29T22:49:31.348Z,17.20
2019-05-29T22:51:59.853Z,17.00
2019-05-29T22:54:27.368Z,17.00
2019-05-29T22:56:55.838Z,17.00
2019-05-29T22:59:31.968Z,17.00
2019-05-29T23:01:54.119Z,16.80
2019-05-29T23:04:21.865Z,17.20
2019-05-29T23:06:49.663Z,16.90
2019-05-29T23:09:16.796Z,16.90
2019-05-29T23:11:43.992Z,16.80
2019-05-29T23:14:11.262Z,16.80
2019-05-29T23:16:38.520Z,17.10
2019-05-29T23:19:06.010Z,16.80
2019-05-29T23:21:33.834Z,16.80
2019-05-29T23:24:01.813Z,16.80
2019-05-29T23:26:29.253Z,16.50
2019-05-29T23:28:56.837Z,16.70
2019-05-29T23:31:24.281Z,16.60
2019-05-29T23:33:52.704Z,16.40
2019-05-29T23:36:20.548Z,16.70
2019-05-29T23:38:47.977Z,16.70
2019-05-29T23:41:15.349Z,16.60
2019-05-29T23:44:03.598Z,16.50
2019-05-29T23:46:31.064Z,15.80
2019-05-29T23:48:59.626Z,17.00
2019-05-29T23:51:27.199Z,16.40
2019-05-29T23:53:55.597Z,16.30
2019-05-29T23:56:22.936Z,16.30
2019-05-29T23:58:50.468Z,16.20
